sensor_id;sensor_type;location;lat;lon;timestamp;P1;durP1;ratioP1;P2;durP2;ratioP2
48835;SDS011;62581;47.342;7.908;2024-03-02T00:00:48;40.40;;;17.30;;
48835;SDS011;62581;47.342;7.908;2024-03-02T00:03:16;31.95;;;16.80;;
48835;SDS011;62581;47.342;7.908;2024-03-02T00:05:44;41.08;;;17.75;;
48835;SDS011;62581;47.342;7.908;2024-03-02T00:08:18;40.17;;;17.60;;
48835;SDS011;62581;47.342;7.908;2024-03-02T00:10:49;43.30;;;15.70;;
48835;SDS011;62581;47.342;7.908;2024-03-02T00:13:18;62.97;;;16.08;;
48835;SDS011;62581;47.342;7.908;2024-03-02T00:15:48;35.20;;;15.68;;
48835;SDS011;62581;47.342;7.908;2024-03-02T00:18:19;41.17;;;15.50;;
48835;SDS011;62581;47.342;7.908;2024-03-02T00:20:49;42.00;;;17.55;;
48835;SDS011;62581;47.342;7.908;2024-03-02T00:23:20;44.33;;;15.95;;
48835;SDS011;62581;47.342;7.908;2024-03-02T00:25:48;40.95;;;15.82;;
48835;SDS011;62581;47.342;7.908;2024-03-02T00:28:19;33.15;;;16.48;;
48835;SDS011;62581;47.342;7.908;2024-03-02T00:30:52;43.40;;;16.33;;
48835;SDS011;62581;47.342;7.908;2024-03-02T00:33:21;45.40;;;17.20;;
48835;SDS011;62581;47.342;7.908;2024-03-02T00:35:50;51.67;;;15.98;;
48835;SDS011;62581;47.342;7.908;2024-03-02T00:38:17;46.65;;;18.63;;
48835;SDS011;62581;47.342;7.908;2024-03-02T00:40:44;50.38;;;16.48;;
48835;SDS011;62581;47.342;7.908;2024-03-02T00:43:18;45.00;;;16.33;;
48835;SDS011;62581;47.342;7.908;2024-03-02T00:46:11;44.00;;;15.43;;
48835;SDS011;62581;47.342;7.908;2024-03-02T00:48:39;51.92;;;16.55;;
48835;SDS011;62581;47.342;7.908;2024-03-02T00:51:15;42.28;;;16.00;;
48835;SDS011;62581;47.342;7.908;2024-03-02T00:53:42;49.17;;;17.33;;
48835;SDS011;62581;47.342;7.908;2024-03-02T00:56:10;33.33;;;16.45;;
48835;SDS011;62581;47.342;7.908;2024-03-02T00:58:38;44.60;;;15.90;;
48835;SDS011;62581;47.342;7.908;2024-03-02T01:01:05;35.00;;;14.95;;
48835;SDS011;62581;47.342;7.908;2024-03-02T01:03:33;38.10;;;15.23;;
48835;SDS011;62581;47.342;7.908;2024-03-02T01:06:00;24.50;;;14.48;;
48835;SDS011;62581;47.342;7.908;2024-03-02T01:08:29;37.25;;;14.95;;
48835;SDS011;62581;47.342;7.908;2024-03-02T01:10:55;26.92;;;14.20;;
48835;SDS011;62581;47.342;7.908;2024-03-02T01:13:22;25.83;;;16.02;;
48835;SDS011;62581;47.342;7.908;2024-03-02T01:15:49;43.05;;;18.08;;
48835;SDS011;62581;47.342;7.908;2024-03-02T01:18:17;30.38;;;16.40;;
48835;SDS011;62581;47.342;7.908;2024-03-02T01:20:44;33.35;;;16.92;;
48835;SDS011;62581;47.342;7.908;2024-03-02T01:23:11;34.35;;;16.88;;
48835;SDS011;62581;47.342;7.908;2024-03-02T01:25:39;37.53;;;17.00;;
48835;SDS011;62581;47.342;7.908;2024-03-02T01:28:06;32.45;;;15.32;;
48835;SDS011;62581;47.342;7.908;2024-03-02T01:30:33;37.30;;;15.23;;
48835;SDS011;62581;47.342;7.908;2024-03-02T01:33:01;35.83;;;13.55;;
48835;SDS011;62581;47.342;7.908;2024-03-02T01:37:57;22.48;;;13.27;;
48835;SDS011;62581;47.342;7.908;2024-03-02T01:40:24;43.58;;;15.77;;
48835;SDS011;62581;47.342;7.908;2024-03-02T01:42:53;34.17;;;14.43;;
48835;SDS011;62581;47.342;7.908;2024-03-02T01:45:20;36.08;;;13.43;;
48835;SDS011;62581;47.342;7.908;2024-03-02T01:47:48;36.70;;;13.73;;
48835;SDS011;62581;47.342;7.908;2024-03-02T01:50:15;46.97;;;14.98;;
48835;SDS011;62581;47.342;7.908;2024-03-02T01:52:50;43.55;;;12.75;;
48835;SDS011;62581;47.342;7.908;2024-03-02T01:55:17;42.92;;;15.23;;
48835;SDS011;62581;47.342;7.908;2024-03-02T01:57:44;45.78;;;13.98;;
48835;SDS011;62581;47.342;7.908;2024-03-02T02:00:14;39.58;;;15.35;;
48835;SDS011;62581;47.342;7.908;2024-03-02T02:02:42;63.80;;;16.15;;
48835;SDS011;62581;47.342;7.908;2024-03-02T02:05:09;35.90;;;14.27;;
48835;SDS011;62581;47.342;7.908;2024-03-02T02:07:36;48.17;;;16.55;;
48835;SDS011;62581;47.342;7.908;2024-03-02T02:10:04;53.55;;;16.33;;
48835;SDS011;62581;47.342;7.908;2024-03-02T02:12:31;71.72;;;16.02;;
48835;SDS011;62581;47.342;7.908;2024-03-02T02:14:58;43.97;;;17.08;;
48835;SDS011;62581;47.342;7.908;2024-03-02T02:17:27;41.28;;;17.17;;
48835;SDS011;62581;47.342;7.908;2024-03-02T02:19:54;73.68;;;17.17;;
48835;SDS011;62581;47.342;7.908;2024-03-02T02:22:22;43.63;;;17.77;;
48835;SDS011;62581;47.342;7.908;2024-03-02T02:24:49;43.88;;;18.08;;
48835;SDS011;62581;47.342;7.908;2024-03-02T02:27:16;46.75;;;18.67;;
48835;SDS011;62581;47.342;7.908;2024-03-02T02:29:43;71.25;;;19.17;;
48835;SDS011;62581;47.342;7.908;2024-03-02T02:32:10;78.88;;;19.45;;
48835;SDS011;62581;47.342;7.908;2024-03-02T02:34:37;43.88;;;18.63;;
48835;SDS011;62581;47.342;7.908;2024-03-02T02:37:04;50.70;;;20.17;;
48835;SDS011;62581;47.342;7.908;2024-03-02T02:39:32;51.38;;;19.17;;
48835;SDS011;62581;47.342;7.908;2024-03-02T02:41:59;52.53;;;17.10;;
48835;SDS011;62581;47.342;7.908;2024-03-02T02:44:28;49.58;;;16.05;;
48835;SDS011;62581;47.342;7.908;2024-03-02T02:46:54;48.00;;;16.20;;
48835;SDS011;62581;47.342;7.908;2024-03-02T02:49:22;57.83;;;15.45;;
48835;SDS011;62581;47.342;7.908;2024-03-02T02:51:49;49.25;;;17.13;;
48835;SDS011;62581;47.342;7.908;2024-03-02T02:54:16;40.00;;;16.95;;
48835;SDS011;62581;47.342;7.908;2024-03-02T02:56:44;48.85;;;16.98;;
48835;SDS011;62581;47.342;7.908;2024-03-02T02:59:11;54.38;;;16.52;;
48835;SDS011;62581;47.342;7.908;2024-03-02T03:01:38;52.20;;;17.05;;
48835;SDS011;62581;47.342;7.908;2024-03-02T03:04:05;62.75;;;18.58;;
48835;SDS011;62581;47.342;7.908;2024-03-02T03:06:31;69.35;;;18.35;;
48835;SDS011;62581;47.342;7.908;2024-03-02T03:08:58;105.15;;;19.77;;
48835;SDS011;62581;47.342;7.908;2024-03-02T03:11:26;83.97;;;18.30;;
48835;SDS011;62581;47.342;7.908;2024-03-02T03:13:54;44.20;;;17.45;;
48835;SDS011;62581;47.342;7.908;2024-03-02T03:16:21;48.88;;;16.80;;
48835;SDS011;62581;47.342;7.908;2024-03-02T03:18:48;54.13;;;15.52;;
48835;SDS011;62581;47.342;7.908;2024-03-02T03:21:16;85.72;;;15.88;;
48835;SDS011;62581;47.342;7.908;2024-03-02T03:23:43;44.85;;;14.23;;
48835;SDS011;62581;47.342;7.908;2024-03-02T03:26:10;63.58;;;14.88;;
48835;SDS011;62581;47.342;7.908;2024-03-02T03:28:37;55.03;;;13.85;;
48835;SDS011;62581;47.342;7.908;2024-03-02T03:31:06;70.53;;;16.02;;
48835;SDS011;62581;47.342;7.908;2024-03-02T03:33:33;53.63;;;14.40;;
48835;SDS011;62581;47.342;7.908;2024-03-02T03:36:00;56.20;;;14.63;;
48835;SDS011;62581;47.342;7.908;2024-03-02T03:38:28;79.32;;;14.93;;
48835;SDS011;62581;47.342;7.908;2024-03-02T03:40:55;40.17;;;15.38;;
48835;SDS011;62581;47.342;7.908;2024-03-02T03:43:22;40.22;;;14.25;;
48835;SDS011;62581;47.342;7.908;2024-03-02T03:45:49;57.90;;;14.95;;
48835;SDS011;62581;47.342;7.908;2024-03-02T03:48:18;50.53;;;16.25;;
48835;SDS011;62581;47.342;7.908;2024-03-02T03:50:45;43.97;;;15.98;;
48835;SDS011;62581;47.342;7.908;2024-03-02T03:53:12;40.30;;;15.43;;
48835;SDS011;62581;47.342;7.908;2024-03-02T03:55:39;55.20;;;15.67;;
48835;SDS011;62581;47.342;7.908;2024-03-02T03:58:07;57.35;;;16.50;;
48835;SDS011;62581;47.342;7.908;2024-03-02T04:00:34;95.25;;;15.65;;
48835;SDS011;62581;47.342;7.908;2024-03-02T04:03:01;74.68;;;15.55;;
48835;SDS011;62581;47.342;7.908;2024-03-02T04:05:29;65.55;;;15.25;;
48835;SDS011;62581;47.342;7.908;2024-03-02T04:07:56;69.00;;;15.10;;
48835;SDS011;62581;47.342;7.908;2024-03-02T04:10:23;55.08;;;14.82;;
48835;SDS011;62581;47.342;7.908;2024-03-02T04:12:50;66.60;;;14.70;;
48835;SDS011;62581;47.342;7.908;2024-03-02T04:15:17;92.78;;;15.32;;
48835;SDS011;62581;47.342;7.908;2024-03-02T04:17:44;68.25;;;14.18;;
48835;SDS011;62581;47.342;7.908;2024-03-02T04:20:11;52.28;;;13.25;;
48835;SDS011;62581;47.342;7.908;2024-03-02T04:22:40;48.67;;;14.30;;
48835;SDS011;62581;47.342;7.908;2024-03-02T04:25:07;48.10;;;13.77;;
48835;SDS011;62581;47.342;7.908;2024-03-02T04:27:34;58.25;;;13.13;;
48835;SDS011;62581;47.342;7.908;2024-03-02T04:30:02;68.93;;;14.90;;
48835;SDS011;62581;47.342;7.908;2024-03-02T04:32:30;56.38;;;14.30;;
48835;SDS011;62581;47.342;7.908;2024-03-02T04:34:57;55.00;;;13.52;;
48835;SDS011;62581;47.342;7.908;2024-03-02T04:37:24;56.30;;;13.18;;
48835;SDS011;62581;47.342;7.908;2024-03-02T04:39:53;63.45;;;13.30;;
48835;SDS011;62581;47.342;7.908;2024-03-02T04:42:19;47.70;;;13.57;;
48835;SDS011;62581;47.342;7.908;2024-03-02T04:44:47;49.10;;;14.13;;
48835;SDS011;62581;47.342;7.908;2024-03-02T04:47:14;42.13;;;13.27;;
48835;SDS011;62581;47.342;7.908;2024-03-02T04:49:41;52.00;;;13.32;;
48835;SDS011;62581;47.342;7.908;2024-03-02T04:52:08;46.72;;;13.85;;
48835;SDS011;62581;47.342;7.908;2024-03-02T04:54:35;46.13;;;16.27;;
48835;SDS011;62581;47.342;7.908;2024-03-02T04:57:24;32.70;;;13.77;;
48835;SDS011;62581;47.342;7.908;2024-03-02T04:59:50;54.63;;;14.38;;
48835;SDS011;62581;47.342;7.908;2024-03-02T05:02:17;62.20;;;14.50;;
48835;SDS011;62581;47.342;7.908;2024-03-02T05:04:44;89.63;;;15.25;;
48835;SDS011;62581;47.342;7.908;2024-03-02T05:07:13;54.78;;;13.85;;
48835;SDS011;62581;47.342;7.908;2024-03-02T05:09:40;57.85;;;14.63;;
48835;SDS011;62581;47.342;7.908;2024-03-02T05:12:07;34.53;;;13.75;;
48835;SDS011;62581;47.342;7.908;2024-03-02T05:15:07;42.67;;;14.88;;
48835;SDS011;62581;47.342;7.908;2024-03-02T05:17:35;46.50;;;13.93;;
48835;SDS011;62581;47.342;7.908;2024-03-02T05:20:03;44.90;;;13.27;;
48835;SDS011;62581;47.342;7.908;2024-03-02T05:22:30;39.00;;;12.75;;
48835;SDS011;62581;47.342;7.908;2024-03-02T05:24:59;30.95;;;13.38;;
48835;SDS011;62581;47.342;7.908;2024-03-02T05:27:26;41.53;;;13.15;;
48835;SDS011;62581;47.342;7.908;2024-03-02T05:29:52;29.02;;;12.93;;
48835;SDS011;62581;47.342;7.908;2024-03-02T05:32:21;26.95;;;13.00;;
48835;SDS011;62581;47.342;7.908;2024-03-02T05:34:48;39.28;;;13.27;;
48835;SDS011;62581;47.342;7.908;2024-03-02T05:37:15;38.67;;;13.20;;
48835;SDS011;62581;47.342;7.908;2024-03-02T05:39:42;45.95;;;12.43;;
48835;SDS011;62581;47.342;7.908;2024-03-02T05:42:09;37.72;;;14.15;;
48835;SDS011;62581;47.342;7.908;2024-03-02T05:44:36;48.13;;;13.50;;
48835;SDS011;62581;47.342;7.908;2024-03-02T05:47:03;30.75;;;12.95;;
48835;SDS011;62581;47.342;7.908;2024-03-02T05:49:35;46.45;;;12.40;;
48835;SDS011;62581;47.342;7.908;2024-03-02T05:52:02;31.85;;;12.85;;
48835;SDS011;62581;47.342;7.908;2024-03-02T05:54:29;32.03;;;13.32;;
48835;SDS011;62581;47.342;7.908;2024-03-02T05:56:56;44.22;;;13.38;;
48835;SDS011;62581;47.342;7.908;2024-03-02T05:59:41;42.85;;;13.48;;
48835;SDS011;62581;47.342;7.908;2024-03-02T06:02:08;44.92;;;13.05;;
48835;SDS011;62581;47.342;7.908;2024-03-02T06:04:37;49.25;;;12.88;;
48835;SDS011;62581;47.342;7.908;2024-03-02T06:07:03;36.63;;;12.32;;
48835;SDS011;62581;47.342;7.908;2024-03-02T06:09:30;36.88;;;11.75;;
48835;SDS011;62581;47.342;7.908;2024-03-02T06:11:57;44.30;;;12.02;;
48835;SDS011;62581;47.342;7.908;2024-03-02T06:14:24;29.27;;;12.55;;
48835;SDS011;62581;47.342;7.908;2024-03-02T06:16:51;22.42;;;12.63;;
48835;SDS011;62581;47.342;7.908;2024-03-02T06:19:18;29.40;;;13.25;;
48835;SDS011;62581;47.342;7.908;2024-03-02T06:21:46;23.63;;;12.82;;
48835;SDS011;62581;47.342;7.908;2024-03-02T06:24:13;24.42;;;14.27;;
48835;SDS011;62581;47.342;7.908;2024-03-02T06:26:40;23.05;;;14.02;;
48835;SDS011;62581;47.342;7.908;2024-03-02T06:29:07;27.95;;;14.93;;
48835;SDS011;62581;47.342;7.908;2024-03-02T06:31:34;25.40;;;14.73;;
48835;SDS011;62581;47.342;7.908;2024-03-02T06:34:01;31.30;;;15.30;;
48835;SDS011;62581;47.342;7.908;2024-03-02T06:36:28;23.80;;;14.35;;
48835;SDS011;62581;47.342;7.908;2024-03-02T06:38:56;28.00;;;14.32;;
48835;SDS011;62581;47.342;7.908;2024-03-02T06:41:23;27.55;;;11.88;;
48835;SDS011;62581;47.342;7.908;2024-03-02T06:43:51;24.10;;;11.00;;
48835;SDS011;62581;47.342;7.908;2024-03-02T06:46:24;27.95;;;11.40;;
48835;SDS011;62581;47.342;7.908;2024-03-02T06:48:51;29.95;;;12.10;;
48835;SDS011;62581;47.342;7.908;2024-03-02T06:51:18;22.05;;;12.18;;
48835;SDS011;62581;47.342;7.908;2024-03-02T06:53:45;17.67;;;11.05;;
48835;SDS011;62581;47.342;7.908;2024-03-02T06:56:13;26.35;;;11.60;;
48835;SDS011;62581;47.342;7.908;2024-03-02T06:58:40;19.88;;;11.35;;
48835;SDS011;62581;47.342;7.908;2024-03-02T07:01:08;24.27;;;11.93;;
48835;SDS011;62581;47.342;7.908;2024-03-02T07:03:35;20.98;;;11.55;;
48835;SDS011;62581;47.342;7.908;2024-03-02T07:06:02;18.25;;;11.88;;
48835;SDS011;62581;47.342;7.908;2024-03-02T07:08:29;20.25;;;10.35;;
48835;SDS011;62581;47.342;7.908;2024-03-02T07:10:56;20.88;;;11.00;;
48835;SDS011;62581;47.342;7.908;2024-03-02T07:13:24;20.80;;;11.10;;
48835;SDS011;62581;47.342;7.908;2024-03-02T07:15:51;15.88;;;11.10;;
48835;SDS011;62581;47.342;7.908;2024-03-02T07:18:46;22.80;;;11.32;;
48835;SDS011;62581;47.342;7.908;2024-03-02T07:21:16;16.45;;;10.40;;
48835;SDS011;62581;47.342;7.908;2024-03-02T07:23:43;18.60;;;11.40;;
48835;SDS011;62581;47.342;7.908;2024-03-02T07:26:10;18.17;;;11.10;;
48835;SDS011;62581;47.342;7.908;2024-03-02T07:28:39;20.30;;;10.52;;
48835;SDS011;62581;47.342;7.908;2024-03-02T07:31:06;19.40;;;10.48;;
48835;SDS011;62581;47.342;7.908;2024-03-02T07:36:01;22.10;;;10.93;;
48835;SDS011;62581;47.342;7.908;2024-03-02T07:38:29;18.70;;;11.75;;
48835;SDS011;62581;47.342;7.908;2024-03-02T07:40:56;21.35;;;11.85;;
48835;SDS011;62581;47.342;7.908;2024-03-02T07:43:23;22.48;;;12.57;;
48835;SDS011;62581;47.342;7.908;2024-03-02T07:45:52;21.15;;;13.02;;
48835;SDS011;62581;47.342;7.908;2024-03-02T07:48:19;20.63;;;12.88;;
48835;SDS011;62581;47.342;7.908;2024-03-02T07:50:46;19.40;;;12.20;;
48835;SDS011;62581;47.342;7.908;2024-03-02T07:53:13;19.40;;;12.20;;
48835;SDS011;62581;47.342;7.908;2024-03-02T07:55:40;20.92;;;13.32;;
48835;SDS011;62581;47.342;7.908;2024-03-02T07:58:07;24.77;;;15.15;;
48835;SDS011;62581;47.342;7.908;2024-03-02T08:00:36;23.50;;;14.13;;
48835;SDS011;62581;47.342;7.908;2024-03-02T08:03:06;22.80;;;14.88;;
48835;SDS011;62581;47.342;7.908;2024-03-02T08:05:36;22.13;;;12.85;;
48835;SDS011;62581;47.342;7.908;2024-03-02T08:08:03;17.75;;;11.98;;
48835;SDS011;62581;47.342;7.908;2024-03-02T08:10:31;17.25;;;11.43;;
48835;SDS011;62581;47.342;7.908;2024-03-02T08:12:58;17.70;;;12.13;;
48835;SDS011;62581;47.342;7.908;2024-03-02T08:15:25;17.65;;;11.75;;
48835;SDS011;62581;47.342;7.908;2024-03-02T08:17:52;19.02;;;11.82;;
48835;SDS011;62581;47.342;7.908;2024-03-02T08:20:21;15.48;;;11.40;;
48835;SDS011;62581;47.342;7.908;2024-03-02T08:25:15;15.75;;;10.45;;
48835;SDS011;62581;47.342;7.908;2024-03-02T08:27:42;15.40;;;11.30;;
48835;SDS011;62581;47.342;7.908;2024-03-02T08:30:10;16.63;;;11.65;;
48835;SDS011;62581;47.342;7.908;2024-03-02T08:32:38;21.88;;;12.45;;
48835;SDS011;62581;47.342;7.908;2024-03-02T08:35:06;19.30;;;12.25;;
48835;SDS011;62581;47.342;7.908;2024-03-02T08:37:34;17.55;;;11.85;;
48835;SDS011;62581;47.342;7.908;2024-03-02T08:40:03;17.38;;;12.30;;
48835;SDS011;62581;47.342;7.908;2024-03-02T08:42:32;20.70;;;12.20;;
48835;SDS011;62581;47.342;7.908;2024-03-02T08:45:00;16.08;;;11.32;;
48835;SDS011;62581;47.342;7.908;2024-03-02T08:47:27;21.80;;;13.10;;
48835;SDS011;62581;47.342;7.908;2024-03-02T08:49:54;18.98;;;12.65;;
48835;SDS011;62581;47.342;7.908;2024-03-02T08:52:21;17.33;;;11.77;;
48835;SDS011;62581;47.342;7.908;2024-03-02T08:54:49;19.00;;;11.80;;
48835;SDS011;62581;47.342;7.908;2024-03-02T08:57:16;18.80;;;11.98;;
48835;SDS011;62581;47.342;7.908;2024-03-02T08:59:43;16.67;;;12.10;;
48835;SDS011;62581;47.342;7.908;2024-03-02T09:02:10;15.68;;;11.15;;
48835;SDS011;62581;47.342;7.908;2024-03-02T09:04:37;17.05;;;12.15;;
48835;SDS011;62581;47.342;7.908;2024-03-02T09:07:04;16.08;;;11.13;;
48835;SDS011;62581;47.342;7.908;2024-03-02T09:09:32;17.90;;;10.70;;
48835;SDS011;62581;47.342;7.908;2024-03-02T09:12:01;20.75;;;13.02;;
48835;SDS011;62581;47.342;7.908;2024-03-02T09:14:28;16.88;;;11.73;;
48835;SDS011;62581;47.342;7.908;2024-03-02T09:16:55;15.43;;;10.82;;
48835;SDS011;62581;47.342;7.908;2024-03-02T09:19:22;16.27;;;11.63;;
48835;SDS011;62581;47.342;7.908;2024-03-02T09:21:49;16.15;;;10.73;;
48835;SDS011;62581;47.342;7.908;2024-03-02T09:24:16;15.93;;;11.48;;
48835;SDS011;62581;47.342;7.908;2024-03-02T09:26:43;17.75;;;11.88;;
48835;SDS011;62581;47.342;7.908;2024-03-02T09:29:11;15.75;;;10.95;;
48835;SDS011;62581;47.342;7.908;2024-03-02T09:31:39;15.73;;;11.20;;
48835;SDS011;62581;47.342;7.908;2024-03-02T09:34:06;18.15;;;11.65;;
48835;SDS011;62581;47.342;7.908;2024-03-02T09:36:33;15.48;;;11.20;;
48835;SDS011;62581;47.342;7.908;2024-03-02T09:39:00;16.42;;;11.20;;
48835;SDS011;62581;47.342;7.908;2024-03-02T09:41:29;16.00;;;10.55;;
48835;SDS011;62581;47.342;7.908;2024-03-02T09:43:56;14.27;;;10.93;;
48835;SDS011;62581;47.342;7.908;2024-03-02T09:46:25;16.58;;;11.00;;
48835;SDS011;62581;47.342;7.908;2024-03-02T09:51:19;17.83;;;12.00;;
48835;SDS011;62581;47.342;7.908;2024-03-02T09:53:46;17.17;;;11.40;;
48835;SDS011;62581;47.342;7.908;2024-03-02T09:56:14;15.93;;;11.57;;
48835;SDS011;62581;47.342;7.908;2024-03-02T09:58:43;17.00;;;11.57;;
48835;SDS011;62581;47.342;7.908;2024-03-02T10:01:10;17.45;;;11.25;;
48835;SDS011;62581;47.342;7.908;2024-03-02T10:03:39;17.70;;;11.82;;
48835;SDS011;62581;47.342;7.908;2024-03-02T10:06:18;17.08;;;11.75;;
48835;SDS011;62581;47.342;7.908;2024-03-02T10:08:45;17.88;;;11.35;;
48835;SDS011;62581;47.342;7.908;2024-03-02T10:11:23;19.20;;;12.80;;
48835;SDS011;62581;47.342;7.908;2024-03-02T10:14:03;20.33;;;12.45;;
48835;SDS011;62581;47.342;7.908;2024-03-02T10:16:33;19.23;;;13.05;;
48835;SDS011;62581;47.342;7.908;2024-03-02T10:19:16;14.95;;;11.63;;
48835;SDS011;62581;47.342;7.908;2024-03-02T10:21:44;16.83;;;11.93;;
48835;SDS011;62581;47.342;7.908;2024-03-02T10:24:11;16.33;;;12.02;;
48835;SDS011;62581;47.342;7.908;2024-03-02T10:26:38;17.75;;;11.55;;
48835;SDS011;62581;47.342;7.908;2024-03-02T10:29:07;15.07;;;10.90;;
48835;SDS011;62581;47.342;7.908;2024-03-02T10:31:35;16.73;;;10.68;;
48835;SDS011;62581;47.342;7.908;2024-03-02T10:34:03;16.63;;;11.57;;
48835;SDS011;62581;47.342;7.908;2024-03-02T10:36:32;15.82;;;11.27;;
48835;SDS011;62581;47.342;7.908;2024-03-02T10:39:01;17.85;;;11.80;;
48835;SDS011;62581;47.342;7.908;2024-03-02T10:43:58;19.30;;;12.02;;
48835;SDS011;62581;47.342;7.908;2024-03-02T10:46:26;16.95;;;11.73;;
48835;SDS011;62581;47.342;7.908;2024-03-02T10:48:55;13.23;;;9.77;;
48835;SDS011;62581;47.342;7.908;2024-03-02T10:51:24;16.30;;;10.70;;
48835;SDS011;62581;47.342;7.908;2024-03-02T10:53:52;15.68;;;10.35;;
48835;SDS011;62581;47.342;7.908;2024-03-02T10:58:50;16.55;;;9.45;;
48835;SDS011;62581;47.342;7.908;2024-03-02T11:01:21;15.02;;;9.52;;
48835;SDS011;62581;47.342;7.908;2024-03-02T11:03:50;17.58;;;10.75;;
48835;SDS011;62581;47.342;7.908;2024-03-02T11:06:18;15.07;;;10.52;;
48835;SDS011;62581;47.342;7.908;2024-03-02T11:08:45;12.98;;;9.38;;
48835;SDS011;62581;47.342;7.908;2024-03-02T11:11:18;12.77;;;9.02;;
48835;SDS011;62581;47.342;7.908;2024-03-02T11:13:49;11.25;;;9.05;;
48835;SDS011;62581;47.342;7.908;2024-03-02T11:16:21;14.40;;;10.38;;
48835;SDS011;62581;47.342;7.908;2024-03-02T11:19:00;14.02;;;8.32;;
48835;SDS011;62581;47.342;7.908;2024-03-02T11:21:28;10.30;;;7.00;;
48835;SDS011;62581;47.342;7.908;2024-03-02T11:26:24;8.45;;;6.40;;
48835;SDS011;62581;47.342;7.908;2024-03-02T11:28:53;8.35;;;6.63;;
48835;SDS011;62581;47.342;7.908;2024-03-02T11:31:21;11.60;;;7.60;;
48835;SDS011;62581;47.342;7.908;2024-03-02T11:33:48;9.07;;;7.40;;
48835;SDS011;62581;47.342;7.908;2024-03-02T11:36:15;9.18;;;6.95;;
48835;SDS011;62581;47.342;7.908;2024-03-02T11:38:43;9.48;;;6.18;;
48835;SDS011;62581;47.342;7.908;2024-03-02T11:41:11;7.85;;;6.28;;
48835;SDS011;62581;47.342;7.908;2024-03-02T11:43:40;10.88;;;6.28;;
48835;SDS011;62581;47.342;7.908;2024-03-02T11:46:09;11.40;;;5.85;;
48835;SDS011;62581;47.342;7.908;2024-03-02T11:51:05;9.48;;;6.75;;
48835;SDS011;62581;47.342;7.908;2024-03-02T11:53:33;8.80;;;6.00;;
48835;SDS011;62581;47.342;7.908;2024-03-02T11:56:05;8.77;;;5.82;;
48835;SDS011;62581;47.342;7.908;2024-03-02T11:58:37;6.93;;;5.50;;
48835;SDS011;62581;47.342;7.908;2024-03-02T12:01:07;9.88;;;5.35;;
48835;SDS011;62581;47.342;7.908;2024-03-02T12:03:34;9.00;;;5.18;;
48835;SDS011;62581;47.342;7.908;2024-03-02T12:06:01;7.03;;;4.97;;
48835;SDS011;62581;47.342;7.908;2024-03-02T12:08:29;5.50;;;4.13;;
48835;SDS011;62581;47.342;7.908;2024-03-02T12:10:58;6.95;;;3.88;;
48835;SDS011;62581;47.342;7.908;2024-03-02T12:13:26;4.45;;;3.67;;
48835;SDS011;62581;47.342;7.908;2024-03-02T12:15:53;4.18;;;3.60;;
48835;SDS011;62581;47.342;7.908;2024-03-02T12:18:22;7.47;;;4.55;;
48835;SDS011;62581;47.342;7.908;2024-03-02T12:20:50;5.75;;;3.80;;
48835;SDS011;62581;47.342;7.908;2024-03-02T12:23:21;5.32;;;3.60;;
48835;SDS011;62581;47.342;7.908;2024-03-02T12:25:48;5.80;;;4.45;;
48835;SDS011;62581;47.342;7.908;2024-03-02T12:28:15;4.85;;;4.10;;
48835;SDS011;62581;47.342;7.908;2024-03-02T12:30:42;5.55;;;4.13;;
48835;SDS011;62581;47.342;7.908;2024-03-02T12:33:10;5.50;;;4.15;;
48835;SDS011;62581;47.342;7.908;2024-03-02T12:38:06;4.80;;;3.90;;
48835;SDS011;62581;47.342;7.908;2024-03-02T12:40:33;5.65;;;4.60;;
48835;SDS011;62581;47.342;7.908;2024-03-02T12:45:29;4.68;;;4.00;;
48835;SDS011;62581;47.342;7.908;2024-03-02T12:47:56;4.60;;;4.00;;
48835;SDS011;62581;47.342;7.908;2024-03-02T12:50:23;4.25;;;3.47;;
48835;SDS011;62581;47.342;7.908;2024-03-02T12:52:52;5.10;;;4.00;;
48835;SDS011;62581;47.342;7.908;2024-03-02T12:55:20;7.40;;;3.92;;
48835;SDS011;62581;47.342;7.908;2024-03-02T12:57:49;5.47;;;4.07;;
48835;SDS011;62581;47.342;7.908;2024-03-02T13:00:17;6.53;;;4.13;;
48835;SDS011;62581;47.342;7.908;2024-03-02T13:02:46;5.70;;;3.78;;
48835;SDS011;62581;47.342;7.908;2024-03-02T13:05:14;4.50;;;3.72;;
48835;SDS011;62581;47.342;7.908;2024-03-02T13:07:41;5.20;;;4.07;;
48835;SDS011;62581;47.342;7.908;2024-03-02T13:10:11;4.78;;;3.65;;
48835;SDS011;62581;47.342;7.908;2024-03-02T13:12:39;4.53;;;3.45;;
48835;SDS011;62581;47.342;7.908;2024-03-02T13:15:06;6.50;;;4.05;;
48835;SDS011;62581;47.342;7.908;2024-03-02T13:17:35;5.90;;;3.63;;
48835;SDS011;62581;47.342;7.908;2024-03-02T13:20:03;4.70;;;3.78;;
48835;SDS011;62581;47.342;7.908;2024-03-02T13:22:33;3.42;;;2.97;;
48835;SDS011;62581;47.342;7.908;2024-03-02T13:25:00;3.95;;;3.25;;
48835;SDS011;62581;47.342;7.908;2024-03-02T13:29:57;4.53;;;3.42;;
48835;SDS011;62581;47.342;7.908;2024-03-02T13:32:24;5.55;;;3.75;;
48835;SDS011;62581;47.342;7.908;2024-03-02T13:34:52;4.32;;;3.00;;
48835;SDS011;62581;47.342;7.908;2024-03-02T13:37:19;5.45;;;3.45;;
48835;SDS011;62581;47.342;7.908;2024-03-02T13:39:47;4.28;;;3.38;;
48835;SDS011;62581;47.342;7.908;2024-03-02T13:42:13;6.03;;;3.58;;
48835;SDS011;62581;47.342;7.908;2024-03-02T13:44:42;4.07;;;3.42;;
48835;SDS011;62581;47.342;7.908;2024-03-02T13:47:10;5.53;;;3.38;;
48835;SDS011;62581;47.342;7.908;2024-03-02T13:49:37;4.13;;;3.28;;
48835;SDS011;62581;47.342;7.908;2024-03-02T13:52:08;5.20;;;3.40;;
48835;SDS011;62581;47.342;7.908;2024-03-02T13:54:38;5.93;;;3.80;;
48835;SDS011;62581;47.342;7.908;2024-03-02T13:57:05;4.00;;;3.47;;
48835;SDS011;62581;47.342;7.908;2024-03-02T13:59:32;4.75;;;3.60;;
48835;SDS011;62581;47.342;7.908;2024-03-02T14:02:01;4.90;;;3.97;;
48835;SDS011;62581;47.342;7.908;2024-03-02T14:04:30;4.80;;;3.60;;
48835;SDS011;62581;47.342;7.908;2024-03-02T14:06:58;5.03;;;3.65;;
48835;SDS011;62581;47.342;7.908;2024-03-02T14:09:25;4.80;;;3.50;;
48835;SDS011;62581;47.342;7.908;2024-03-02T14:11:52;6.43;;;4.13;;
48835;SDS011;62581;47.342;7.908;2024-03-02T14:14:19;7.82;;;4.70;;
48835;SDS011;62581;47.342;7.908;2024-03-02T14:16:46;5.05;;;4.13;;
48835;SDS011;62581;47.342;7.908;2024-03-02T14:19:15;5.00;;;3.67;;
48835;SDS011;62581;47.342;7.908;2024-03-02T14:21:42;6.00;;;4.20;;
48835;SDS011;62581;47.342;7.908;2024-03-02T14:24:09;5.22;;;3.55;;
48835;SDS011;62581;47.342;7.908;2024-03-02T14:26:36;4.85;;;3.80;;
48835;SDS011;62581;47.342;7.908;2024-03-02T14:29:03;5.20;;;4.03;;
48835;SDS011;62581;47.342;7.908;2024-03-02T14:31:30;5.28;;;3.78;;
48835;SDS011;62581;47.342;7.908;2024-03-02T14:33:57;7.60;;;4.03;;
48835;SDS011;62581;47.342;7.908;2024-03-02T14:36:26;5.80;;;4.03;;
48835;SDS011;62581;47.342;7.908;2024-03-02T14:41:20;5.72;;;3.97;;
48835;SDS011;62581;47.342;7.908;2024-03-02T14:43:49;7.97;;;4.22;;
48835;SDS011;62581;47.342;7.908;2024-03-02T14:46:16;4.32;;;3.75;;
48835;SDS011;62581;47.342;7.908;2024-03-02T14:48:43;5.95;;;3.88;;
48835;SDS011;62581;47.342;7.908;2024-03-02T14:51:11;4.97;;;4.05;;
48835;SDS011;62581;47.342;7.908;2024-03-02T14:53:40;5.60;;;3.65;;
48835;SDS011;62581;47.342;7.908;2024-03-02T14:56:07;7.68;;;4.55;;
48835;SDS011;62581;47.342;7.908;2024-03-02T14:58:34;7.05;;;4.07;;
48835;SDS011;62581;47.342;7.908;2024-03-02T15:01:03;7.22;;;4.57;;
48835;SDS011;62581;47.342;7.908;2024-03-02T15:03:30;5.93;;;4.55;;